createdAt,value
2018-02-23T00:00:50.090Z,1019.69
2018-02-23T00:02:51.905Z,1019.64
2018-02-23T00:04:54.161Z,1019.61
2018-02-23T00:06:56.027Z,1019.63
2018-02-23T00:08:57.903Z,1019.64
2018-02-23T00:10:59.694Z,1019.63
2018-02-23T00:13:01.526Z,1019.61
2018-02-23T00:15:03.416Z,1019.64
2018-02-23T00:17:05.222Z,1019.60
2018-02-23T00:19:07.490Z,1019.58
2018-02-23T00:21:09.240Z,1019.56
2018-02-23T00:23:11.538Z,1019.59
2018-02-23T00:25:13.339Z,1019.58
2018-02-23T00:27:15.125Z,1019.56
2018-02-23T00:29:17.433Z,1019.51
2018-02-23T00:31:19.093Z,1019.53
2018-02-23T00:33:21.184Z,1019.52
2018-02-23T00:35:23.292Z,1019.51
2018-02-23T00:37:25.103Z,1019.50
2018-02-23T00:39:26.908Z,1019.53
2018-02-23T00:41:28.728Z,1019.53
2018-02-23T00:43:30.984Z,1019.51
2018-02-23T00:45:32.831Z,1019.48
2018-02-23T00:47:34.744Z,1019.51
2018-02-23T00:49:36.484Z,1019.53
2018-02-23T00:51:38.601Z,1019.56
2018-02-23T00:53:40.293Z,1019.52
2018-02-23T00:55:42.109Z,1019.52
2018-02-23T00:57:44.202Z,1019.54
2018-02-23T00:59:46.069Z,1019.55
2018-02-23T01:01:47.855Z,1019.53
2018-02-23T01:03:49.645Z,1019.50
2018-02-23T01:05:51.445Z,1019.47
2018-02-23T01:07:53.610Z,1019.47
2018-02-23T01:09:55.785Z,1019.50
2018-02-23T01:11:58.085Z,1019.56
2018-02-23T01:14:00.232Z,1019.62
2018-02-23T01:16:01.979Z,1019.58
2018-02-23T01:18:04.224Z,1019.61
2018-02-23T01:20:05.975Z,1019.53
2018-02-23T01:22:07.791Z,1019.53
2018-02-23T01:24:10.526Z,1019.55
2018-02-23T01:26:12.313Z,1019.53
2018-02-23T01:28:14.158Z,1019.53
2018-02-23T01:30:15.915Z,1019.50
2018-02-23T01:32:18.071Z,1019.49
2018-02-23T01:34:19.960Z,1019.47
2018-02-23T01:36:21.758Z,1019.44
2018-02-23T01:38:23.668Z,1019.42
2018-02-23T01:40:25.484Z,1019.40
2018-02-23T01:42:27.227Z,1019.33
2018-02-23T01:44:28.996Z,1019.34
2018-02-23T01:46:31.150Z,1019.32
2018-02-23T01:48:33.000Z,1019.32
2018-02-23T01:50:35.118Z,1019.32
2018-02-23T01:52:36.911Z,1019.29
2018-02-23T01:54:39.049Z,1019.35
2018-02-23T01:56:40.949Z,1019.30
2018-02-23T01:58:42.836Z,1019.23
2018-02-23T02:00:45.090Z,1019.23
2018-02-23T02:02:46.860Z,1019.23
2018-02-23T02:05:29.887Z,1019.22
2018-02-23T02:07:32.614Z,1019.19
2018-02-23T02:09:34.251Z,1019.16
2018-02-23T02:11:35.963Z,1019.14
2018-02-23T02:13:37.737Z,1019.14
2018-02-23T02:15:39.459Z,1019.12
2018-02-23T02:17:41.394Z,1019.05
2018-02-23T02:19:43.190Z,1019.04
2018-02-23T02:21:45.044Z,1019.09
2018-02-23T02:23:46.878Z,1019.11
2018-02-23T02:25:48.665Z,1019.11
2018-02-23T02:27:50.922Z,1019.11
2018-02-23T02:29:52.649Z,1019.09
2018-02-23T02:31:54.444Z,1019.09
2018-02-23T02:33:56.299Z,1019.05
2018-02-23T02:35:58.122Z,1019.05
2018-02-23T02:37:59.779Z,1019.03
2018-02-23T02:40:01.864Z,1019.06
2018-02-23T02:42:03.931Z,1019.04
2018-02-23T02:44:05.680Z,1019.03
2018-02-23T02:46:07.521Z,1019.00
2018-02-23T02:48:09.300Z,1018.96
2018-02-23T02:50:11.156Z,1018.96
2018-02-23T02:52:12.873Z,1018.95
2018-02-23T02:54:14.640Z,1018.92
2018-02-23T02:56:16.516Z,1018.93
2018-02-23T02:58:18.401Z,1018.93
2018-02-23T03:00:20.231Z,1018.94
2018-02-23T03:02:22.120Z,1018.93
2018-02-23T03:04:24.012Z,1018.95
2018-02-23T03:06:25.825Z,1018.94
2018-02-23T03:08:27.659Z,1018.95
2018-02-23T03:10:29.973Z,1018.95
2018-02-23T03:12:31.772Z,1018.95
2018-02-23T03:14:33.528Z,1018.91
2018-02-23T03:16:35.359Z,1018.94
2018-02-23T03:18:37.298Z,1018.95
2018-02-23T03:20:39.176Z,1018.90
2018-02-23T03:22:40.942Z,1018.89
2018-02-23T03:25:24.358Z,1018.87
2018-02-23T03:27:27.598Z,1018.87
2018-02-23T03:29:29.758Z,1018.87
2018-02-23T03:31:32.105Z,1018.88
2018-02-23T03:33:34.028Z,1018.90
2018-02-23T03:35:36.255Z,1018.84
2018-02-23T03:37:38.024Z,1018.86
2018-02-23T03:39:39.843Z,1018.85
2018-02-23T03:41:41.693Z,1018.86
2018-02-23T03:43:43.828Z,1018.81
2018-02-23T03:45:45.453Z,1018.81
2018-02-23T03:47:47.594Z,1018.80
2018-02-23T03:49:50.646Z,1018.79
2018-02-23T03:51:52.447Z,1018.82
2018-02-23T03:53:54.544Z,1018.85
2018-02-23T03:55:56.614Z,1018.87
2018-02-23T03:57:58.526Z,1018.88
2018-02-23T04:00:01.441Z,1018.91
2018-02-23T04:02:03.218Z,1018.89
2018-02-23T04:04:51.343Z,1018.90
2018-02-23T04:06:52.846Z,1018.94
2018-02-23T04:08:54.908Z,1018.95
2018-02-23T04:10:56.499Z,1018.98
2018-02-23T04:12:58.716Z,1018.94
2018-02-23T04:15:00.476Z,1018.94
2018-02-23T04:17:02.313Z,1018.95
2018-02-23T04:19:04.050Z,1018.92
2018-02-23T04:21:05.882Z,1018.97
2018-02-23T04:23:07.676Z,1018.90
2018-02-23T04:25:09.400Z,1018.96
2018-02-23T04:27:11.324Z,1018.94
2018-02-23T04:29:13.168Z,1018.91
2018-02-23T04:31:15.307Z,1018.95
2018-02-23T04:33:17.145Z,1018.96
2018-02-23T04:35:18.990Z,1018.92
2018-02-23T04:37:20.758Z,1018.91
2018-02-23T04:39:22.648Z,1018.92
2018-02-23T04:41:24.445Z,1018.89
2018-02-23T04:43:26.554Z,1018.94
2018-02-23T04:45:28.431Z,1018.93
2018-02-23T04:47:30.284Z,1018.89
2018-02-23T04:49:32.130Z,1018.93
2018-02-23T04:51:34.025Z,1018.90
2018-02-23T04:53:35.797Z,1018.87
2018-02-23T04:55:37.530Z,1018.88
2018-02-23T04:57:39.652Z,1018.98
2018-02-23T04:59:41.708Z,1018.92
2018-02-23T05:01:43.741Z,1018.91
2018-02-23T05:03:45.525Z,1018.94
2018-02-23T05:05:47.288Z,1018.93
2018-02-23T05:07:49.087Z,1018.95
2018-02-23T05:09:50.953Z,1018.96
2018-02-23T05:11:52.834Z,1019.02
2018-02-23T05:13:54.662Z,1019.02
2018-02-23T05:15:57.086Z,1019.05
2018-02-23T05:17:58.869Z,1019.07
2018-02-23T05:20:01.066Z,1019.08
2018-02-23T05:22:02.814Z,1019.08
2018-02-23T05:24:05.014Z,1019.07
2018-02-23T05:26:06.816Z,1019.10
2018-02-23T05:28:08.662Z,1019.07
2018-02-23T05:30:10.407Z,1019.05
2018-02-23T05:32:12.171Z,1019.04
2018-02-23T05:34:14.385Z,1019.02
2018-02-23T05:36:16.225Z,1019.05
2018-02-23T05:38:18.016Z,1019.05
2018-02-23T05:40:19.783Z,1019.05
2018-02-23T05:42:21.563Z,1019.14
2018-02-23T05:44:23.367Z,1019.09
2018-02-23T05:46:25.192Z,1019.07
2018-02-23T05:48:27.027Z,1019.02
2018-02-23T05:50:28.821Z,1019.02
2018-02-23T05:52:31.150Z,1019.00
2018-02-23T05:54:33.256Z,1018.98
2018-02-23T05:56:35.473Z,1019.07
2018-02-23T05:58:37.368Z,1019.12
2018-02-23T06:00:39.274Z,1019.15
2018-02-23T06:03:22.702Z,1019.14
2018-02-23T06:05:24.217Z,1019.16
2018-02-23T06:07:26.253Z,1019.13
2018-02-23T06:09:29.004Z,1019.16
2018-02-23T06:11:30.581Z,1019.15
2018-02-23T06:13:32.295Z,1019.15
2018-02-23T06:15:34.113Z,1019.18
2018-02-23T06:17:35.983Z,1019.21
2018-02-23T06:19:37.765Z,1019.26
2018-02-23T06:21:39.866Z,1019.27
2018-02-23T06:23:41.677Z,1019.32
2018-02-23T06:25:43.436Z,1019.30
2018-02-23T06:27:45.289Z,1019.29
2018-02-23T06:29:47.059Z,1019.28
2018-02-23T06:31:48.913Z,1019.27
2018-02-23T06:33:50.916Z,1019.32
2018-02-23T06:35:52.675Z,1019.34
2018-02-23T06:37:55.091Z,1019.44
2018-02-23T06:39:56.844Z,1019.45
2018-02-23T06:41:58.778Z,1019.46
2018-02-23T06:44:00.502Z,1019.46
2018-02-23T06:46:02.376Z,1019.50
2018-02-23T06:48:04.127Z,1019.52
2018-02-23T06:50:06.182Z,1019.48
2018-02-23T06:52:07.917Z,1019.50
2018-02-23T06:54:09.670Z,1019.51
2018-02-23T06:56:11.547Z,1019.58
2018-02-23T06:58:13.324Z,1019.53
2018-02-23T07:00:15.372Z,1019.53
2018-02-23T07:02:17.273Z,1019.57
2018-02-23T07:05:00.218Z,1019.56
2018-02-23T07:07:03.835Z,1019.58
2018-02-23T07:09:05.744Z,1019.61
2018-02-23T07:11:07.884Z,1019.63
2018-02-23T07:13:09.924Z,1019.66
2018-02-23T07:15:11.729Z,1019.67
2018-02-23T07:17:13.438Z,1019.73
2018-02-23T07:19:15.553Z,1019.70
2018-02-23T07:21:17.300Z,1019.69
2018-02-23T07:24:00.649Z,1019.67
2018-02-23T07:26:02.322Z,1019.70
2018-02-23T07:28:03.890Z,1019.69
2018-02-23T07:30:05.622Z,1019.70
2018-02-23T07:32:07.208Z,1019.71
2018-02-23T07:34:08.840Z,1019.73
2018-02-23T07:36:11.776Z,1019.77
2018-02-23T07:38:13.342Z,1019.72
2018-02-23T07:40:15.386Z,1019.73
2018-02-23T07:42:17.325Z,1019.74
2018-02-23T07:45:00.672Z,1019.78
2018-02-23T07:47:06.057Z,1019.70
2018-02-23T07:49:07.580Z,1019.75
2018-02-23T07:51:09.554Z,1019.74
2018-02-23T07:53:11.389Z,1019.76
2018-02-23T07:55:13.148Z,1019.86
2018-02-23T07:57:14.873Z,1019.81
2018-02-23T07:59:16.709Z,1019.85
2018-02-23T08:01:18.586Z,1019.86
2018-02-23T08:03:20.410Z,1019.85
2018-02-23T08:05:22.193Z,1019.87
2018-02-23T08:07:23.924Z,1019.87
2018-02-23T08:09:25.920Z,1019.92
2018-02-23T08:11:27.998Z,1019.95
2018-02-23T08:13:30.012Z,1020.01
2018-02-23T08:15:31.729Z,1020.07
2018-02-23T08:17:33.613Z,1020.15
2018-02-23T08:19:35.477Z,1020.08
2018-02-23T08:21:37.424Z,1020.10
2018-02-23T08:23:39.253Z,1020.08
2018-02-23T08:25:41.209Z,1020.14
2018-02-23T08:27:43.013Z,1020.11
2018-02-23T08:29:44.858Z,1020.20
2018-02-23T08:31:46.777Z,1020.19
2018-02-23T08:33:48.522Z,1020.16
2018-02-23T08:35:50.271Z,1020.14
2018-02-23T08:37:52.250Z,1020.10
2018-02-23T08:39:53.756Z,1020.04
2018-02-23T08:41:55.426Z,1020.05
2018-02-23T08:44:37.897Z,1020.13
2018-02-23T08:46:39.313Z,1020.15
2018-02-23T08:48:40.735Z,1020.18
2018-02-23T08:50:42.155Z,1020.25
2018-02-23T08:52:43.571Z,1020.23
2018-02-23T08:54:46.286Z,1020.24
2018-02-23T08:56:47.738Z,1020.24
2018-02-23T08:58:50.178Z,1020.24
2018-02-23T09:00:52.143Z,1020.24
2018-02-23T09:03:35.985Z,1020.25
2018-02-23T09:05:38.759Z,1020.22
2018-02-23T09:07:40.129Z,1020.22
2018-02-23T09:09:42.530Z,1020.25
2018-02-23T09:11:44.291Z,1020.22
2018-02-23T09:13:45.847Z,1020.30
2018-02-23T09:15:47.291Z,1020.38
2018-02-23T09:17:48.937Z,1020.39
2018-02-23T09:19:51.707Z,1020.35
2018-02-23T09:21:53.696Z,1020.35
2018-02-23T09:24:39.351Z,1020.28
2018-02-23T09:26:40.783Z,1020.32
2018-02-23T09:28:42.941Z,1020.30
2018-02-23T09:30:44.372Z,1020.27
2018-02-23T09:32:46.012Z,1020.29
2018-02-23T09:34:48.071Z,1020.30
2018-02-23T09:36:51.220Z,1020.31
2018-02-23T09:38:52.943Z,1020.26
2018-02-23T09:40:54.444Z,1020.29
2018-02-23T09:42:55.976Z,1020.27
2018-02-23T09:44:58.090Z,1020.26
2018-02-23T09:46:59.632Z,1020.26
2018-02-23T09:49:01.917Z,1020.21
2018-02-23T09:51:03.343Z,1020.15
2018-02-23T09:53:04.847Z,1020.16
2018-02-23T09:55:06.350Z,1020.08
2018-02-23T09:57:08.218Z,1020.09
2018-02-23T09:59:09.761Z,1020.09
2018-02-23T10:01:52.563Z,1020.09
2018-02-23T10:03:53.944Z,1020.09
2018-02-23T10:05:55.351Z,1020.08
2018-02-23T10:08:02.691Z,1020.16
2018-02-23T10:10:04.468Z,1020.15
2018-02-23T10:12:05.979Z,1020.12
2018-02-23T10:14:07.776Z,1020.19
2018-02-23T10:16:09.369Z,1020.06
2018-02-23T10:18:10.972Z,1020.09
2018-02-23T10:20:53.229Z,1020.13
2018-02-23T10:22:54.664Z,1020.12
2018-02-23T10:24:57.707Z,1020.06
2018-02-23T10:26:59.077Z,1020.07
2018-02-23T10:29:00.496Z,1020.01
2018-02-23T10:31:01.904Z,1019.94
2018-02-23T10:33:03.319Z,1020.01
2018-02-23T10:35:04.732Z,1019.95
2018-02-23T10:37:07.859Z,1019.88
2018-02-23T10:39:09.330Z,1019.88
2018-02-23T10:41:12.244Z,1019.88
2018-02-23T10:43:13.770Z,1019.80
2018-02-23T10:45:15.346Z,1019.82
2018-02-23T10:47:16.755Z,1019.77
2018-02-23T10:49:18.146Z,1019.73
2018-02-23T10:51:19.573Z,1019.78
2018-02-23T10:53:21.031Z,1019.74
2018-02-23T10:55:22.544Z,1019.72
2018-02-23T10:57:24.063Z,1019.72
2018-02-23T11:00:08.018Z,1019.70
2018-02-23T11:02:11.124Z,1019.60
2018-02-23T11:04:12.571Z,1019.66
2018-02-23T11:06:15.075Z,1019.62
2018-02-23T11:08:16.549Z,1019.66
2018-02-23T11:10:18.633Z,1019.62
2018-02-23T11:12:20.132Z,1019.60
2018-02-23T11:14:22.840Z,1019.65
2018-02-23T11:16:24.381Z,1019.62
2018-02-23T11:18:25.915Z,1019.59
2018-02-23T11:21:07.809Z,1019.62
2018-02-23T11:23:11.102Z,1019.59
2018-02-23T11:25:12.447Z,1019.57
2018-02-23T11:27:13.859Z,1019.50
2018-02-23T11:29:15.276Z,1019.58
2018-02-23T11:31:16.702Z,1019.60
2018-02-23T11:33:19.713Z,1019.55
2018-02-23T11:35:22.292Z,1019.62
2018-02-23T11:37:23.837Z,1019.61
2018-02-23T11:40:06.756Z,1019.58
2018-02-23T11:42:08.207Z,1019.54
2018-02-23T11:44:09.623Z,1019.59
2018-02-23T11:46:11.047Z,1019.57
2018-02-23T11:48:14.211Z,1019.52
2018-02-23T11:50:15.651Z,1019.53
2018-02-23T11:52:17.036Z,1019.42
2018-02-23T11:54:18.448Z,1019.44
2018-02-23T11:56:20.957Z,1019.47
2018-02-23T11:58:22.370Z,1019.42
2018-02-23T12:01:04.602Z,1019.40
2018-02-23T12:03:06.019Z,1019.40
2018-02-23T12:05:08.184Z,1019.38
2018-02-23T12:07:09.599Z,1019.32
2018-02-23T12:09:11.020Z,1019.34
2018-02-23T12:11:13.243Z,1019.29
2018-02-23T12:13:14.645Z,1019.21
2018-02-23T12:15:16.079Z,1019.28
2018-02-23T12:17:18.343Z,1019.29
2018-02-23T12:19:19.982Z,1019.32
2018-02-23T12:21:21.531Z,1019.30
2018-02-23T12:23:23.652Z,1019.24
2018-02-23T12:25:25.197Z,1019.25
2018-02-23T12:27:26.717Z,1019.23
2018-02-23T12:29:29.102Z,1019.18
2018-02-23T12:31:30.639Z,1019.21
2018-02-23T12:33:32.691Z,1019.23
2018-02-23T12:35:34.197Z,1019.24
2018-02-23T12:37:35.670Z,1019.23
2018-02-23T12:39:37.212Z,1019.13
2018-02-23T12:41:39.206Z,1019.11
2018-02-23T12:43:40.717Z,1019.08
2018-02-23T12:45:42.273Z,1019.06
2018-02-23T12:47:43.950Z,1019.08
2018-02-23T12:49:45.528Z,1019.08
2018-02-23T12:51:47.061Z,1019.12
2018-02-23T12:53:48.564Z,1019.05
2018-02-23T12:55:50.029Z,1019.12
2018-02-23T12:57:52.162Z,1019.13
2018-02-23T12:59:53.647Z,1019.09
2018-02-23T13:01:55.852Z,1019.04
2018-02-23T13:03:58.147Z,1019.08
2018-02-23T13:06:00.259Z,1019.06
2018-02-23T13:08:01.773Z,1019.08
2018-02-23T13:10:03.264Z,1019.05
2018-02-23T13:12:04.743Z,1019.01
2018-02-23T13:14:06.196Z,1019.04
2018-02-23T13:16:07.662Z,1019.01
2018-02-23T13:18:50.254Z,1019.04
2018-02-23T13:20:51.666Z,1019.07
2018-02-23T13:22:53.545Z,1019.08
2018-02-23T13:24:55.238Z,1019.00
2018-02-23T13:26:56.710Z,1019.09
2018-02-23T13:28:58.263Z,1019.04
2018-02-23T13:30:59.677Z,1019.00
2018-02-23T13:33:01.175Z,1018.92
2018-02-23T13:35:02.607Z,1018.92
2018-02-23T13:37:04.019Z,1018.96
2018-02-23T13:39:05.597Z,1018.96
2018-02-23T13:41:07.831Z,1018.89
2018-02-23T13:43:09.390Z,1018.91
2018-02-23T13:45:11.569Z,1018.84
2018-02-23T13:47:13.085Z,1018.88
2018-02-23T13:49:14.613Z,1018.84
2018-02-23T13:51:16.032Z,1018.81
2018-02-23T13:53:17.545Z,1018.81
2018-02-23T13:55:19.662Z,1018.75
2018-02-23T13:57:21.509Z,1018.72
2018-02-23T14:00:03.869Z,1018.70
2018-02-23T14:02:05.287Z,1018.72
2018-02-23T14:04:06.698Z,1018.69
2018-02-23T14:06:08.113Z,1018.64
2018-02-23T14:08:09.538Z,1018.64
2018-02-23T14:10:10.936Z,1018.62
2018-02-23T14:12:12.555Z,1018.67
2018-02-23T14:14:13.972Z,1018.64
2018-02-23T14:16:15.378Z,1018.60
2018-02-23T14:18:16.854Z,1018.55
2018-02-23T14:20:18.262Z,1018.54
2018-02-23T14:22:19.695Z,1018.57
2018-02-23T14:24:21.277Z,1018.63
2018-02-23T14:26:22.697Z,1018.57
2018-02-23T14:28:24.107Z,1018.57
2018-02-23T14:30:25.548Z,1018.54
2018-02-23T14:32:27.038Z,1018.53
2018-02-23T14:34:28.602Z,1018.55
2018-02-23T14:36:30.058Z,1018.55
2018-02-23T14:38:31.549Z,1018.49
2018-02-23T14:40:33.855Z,1018.49
2018-02-23T14:42:36.430Z,1018.47
2018-02-23T14:44:38.811Z,1018.47
2018-02-23T14:46:40.715Z,1018.37
2018-02-23T14:48:42.703Z,1018.43
2018-02-23T14:50:44.204Z,1018.36
2018-02-23T14:52:46.473Z,1018.42
2018-02-23T14:54:47.956Z,1018.42
2018-02-23T14:56:49.468Z,1018.41
2018-02-23T14:59:33.009Z,1018.47
2018-02-23T15:01:34.423Z,1018.44
2018-02-23T15:03:36.209Z,1018.40
2018-02-23T15:05:37.616Z,1018.36
2018-02-23T15:07:39.128Z,1018.29
2018-02-23T15:09:40.580Z,1018.23
2018-02-23T15:11:42.036Z,1018.31
2018-02-23T15:13:43.578Z,1018.36
2018-02-23T15:15:45.110Z,1018.37
2018-02-23T15:18:27.154Z,1018.29
2018-02-23T15:20:28.739Z,1018.28
2018-02-23T15:22:30.516Z,1018.31
2018-02-23T15:24:33.722Z,1018.23
2018-02-23T15:26:35.962Z,1018.22
2018-02-23T15:28:38.141Z,1018.27
2018-02-23T15:30:39.676Z,1018.22
2018-02-23T15:32:41.221Z,1018.24
2018-02-23T15:34:42.660Z,1018.25
2018-02-23T15:36:44.973Z,1018.26
2018-02-23T15:39:31.060Z,1018.25
2018-02-23T15:41:32.617Z,1018.15
2018-02-23T15:43:34.895Z,1018.28
2018-02-23T15:45:36.272Z,1018.26
2018-02-23T15:47:38.551Z,1018.24
2018-02-23T15:49:40.452Z,1018.25
2018-02-23T15:51:42.422Z,1018.25
2018-02-23T15:53:43.927Z,1018.31
2018-02-23T15:55:45.486Z,1018.27
2018-02-23T15:58:27.185Z,1018.27
2018-02-23T16:00:28.965Z,1018.26
2018-02-23T16:02:31.840Z,1018.31
2018-02-23T16:04:33.452Z,1018.30
2018-02-23T16:06:34.883Z,1018.32
2018-02-23T16:08:36.376Z,1018.34
2018-02-23T16:10:37.932Z,1018.27
2018-02-23T16:12:39.441Z,1018.31
2018-02-23T16:14:40.971Z,1018.29
2018-02-23T16:16:43.228Z,1018.35
2018-02-23T16:18:44.853Z,1018.34
2018-02-23T16:20:46.379Z,1018.33
2018-02-23T16:22:48.515Z,1018.36
2018-02-23T16:24:50.006Z,1018.43
2018-02-23T16:26:51.584Z,1018.46
2018-02-23T16:28:53.121Z,1018.49
2018-02-23T16:30:54.622Z,1018.50
2018-02-23T16:32:56.203Z,1018.51
2018-02-23T16:34:58.372Z,1018.48
2018-02-23T16:37:00.419Z,1018.47
2018-02-23T16:39:02.407Z,1018.42
2018-02-23T16:41:03.863Z,1018.44
2018-02-23T16:43:05.279Z,1018.43
2018-02-23T16:45:07.476Z,1018.37
2018-02-23T16:47:08.981Z,1018.34
2018-02-23T16:49:10.510Z,1018.36
2018-02-23T16:51:12.029Z,1018.42
2018-02-23T16:53:13.528Z,1018.41
2018-02-23T16:55:15.639Z,1018.41
2018-02-23T16:58:01.308Z,1018.43
2018-02-23T17:00:03.525Z,1018.40
2018-02-23T17:02:05.573Z,1018.42
2018-02-23T17:04:07.007Z,1018.44
2018-02-23T17:06:09.138Z,1018.41
2018-02-23T17:08:10.714Z,1018.46
2018-02-23T17:10:12.953Z,1018.50
2018-02-23T17:12:14.506Z,1018.49
2018-02-23T17:14:16.048Z,1018.54
2018-02-23T17:16:17.496Z,1018.59
2018-02-23T17:18:19.030Z,1018.62
2018-02-23T17:20:20.526Z,1018.57
2018-02-23T17:22:22.791Z,1018.58
2018-02-23T17:24:24.242Z,1018.56
2018-02-23T17:26:25.768Z,1018.60
2018-02-23T17:28:27.280Z,1018.59
2018-02-23T17:30:29.036Z,1018.58
2018-02-23T17:32:31.143Z,1018.58
2018-02-23T17:34:33.306Z,1018.57
2018-02-23T17:36:35.511Z,1018.67
2018-02-23T17:39:17.905Z,1018.69
2018-02-23T17:41:19.314Z,1018.64
2018-02-23T17:43:20.717Z,1018.72
2018-02-23T17:45:23.572Z,1018.72
2018-02-23T17:47:25.958Z,1018.73
2018-02-23T17:49:27.346Z,1018.77
2018-02-23T17:51:28.867Z,1018.75
2018-02-23T17:53:30.412Z,1018.80
2018-02-23T17:55:31.996Z,1018.78
2018-02-23T17:58:15.767Z,1018.80
2018-02-23T18:00:17.874Z,1018.82
2018-02-23T18:02:19.842Z,1018.86
2018-02-23T18:04:21.888Z,1018.88
2018-02-23T18:06:23.294Z,1018.93
2018-02-23T18:08:25.293Z,1018.96
2018-02-23T18:10:26.984Z,1018.92
2018-02-23T18:12:28.595Z,1018.94
2018-02-23T18:14:30.534Z,1018.91
2018-02-23T18:16:32.250Z,1018.91
2018-02-23T18:18:34.222Z,1018.89
2018-02-23T18:20:36.816Z,1018.95
2018-02-23T18:22:39.766Z,1019.00
2018-02-23T18:24:42.209Z,1018.92
2018-02-23T18:26:45.264Z,1018.93
2018-02-23T18:28:48.864Z,1018.92
2018-02-23T18:30:50.601Z,1018.99
2018-02-23T18:32:53.140Z,1019.02
2018-02-23T18:34:55.201Z,1019.09
2018-02-23T18:36:57.366Z,1019.07
2018-02-23T18:38:59.091Z,1019.11
2018-02-23T18:41:01.269Z,1019.08
2018-02-23T18:43:02.873Z,1019.10
2018-02-23T18:45:05.204Z,1019.08
2018-02-23T18:47:07.426Z,1019.13
2018-02-23T18:49:10.196Z,1019.08
2018-02-23T18:51:14.743Z,1019.10
2018-02-23T18:53:18.364Z,1019.07
2018-02-23T18:55:20.701Z,1019.09
2018-02-23T18:57:23.405Z,1019.13
2018-02-23T18:59:25.432Z,1019.15
2018-02-23T19:01:27.865Z,1019.12
2018-02-23T19:03:30.272Z,1019.16
2018-02-23T19:05:32.468Z,1019.18
2018-02-23T22:20:26.741Z,1019.83
2018-02-23T22:22:28.135Z,1019.80
2018-02-23T22:25:10.766Z,1019.79
2018-02-23T22:27:13.139Z,1019.82
2018-02-23T22:30:00.671Z,1019.81
2018-02-23T22:32:57.300Z,1019.94
2018-02-23T22:35:43.177Z,1019.97
2018-02-23T22:38:27.792Z,1020.01
2018-02-23T22:41:13.654Z,1020.05
2018-02-23T22:44:00.678Z,1020.05
2018-02-23T22:46:46.150Z,1020.04
2018-02-23T22:49:36.656Z,1020.12
2018-02-23T22:52:25.257Z,1020.13
2018-02-23T22:55:15.200Z,1020.12
2018-02-23T22:58:00.398Z,1020.21
2018-02-23T23:00:46.364Z,1020.21
2018-02-23T23:03:31.047Z,1020.21
2018-02-23T23:06:15.211Z,1020.26
2018-02-23T23:09:00.086Z,1020.26
2018-02-23T23:11:43.390Z,1020.29
2018-02-23T23:14:29.531Z,1020.21
2018-02-23T23:17:15.282Z,1020.22
2018-02-23T23:20:02.301Z,1020.19
2018-02-23T23:22:46.455Z,1020.27
2018-02-23T23:25:32.375Z,1020.20
2018-02-23T23:28:21.327Z,1020.25
2018-02-23T23:31:10.225Z,1020.32
2018-02-23T23:34:02.816Z,1020.35
2018-02-23T23:36:47.267Z,1020.33
2018-02-23T23:39:31.192Z,1020.33
2018-02-23T23:42:17.844Z,1020.35
2018-02-23T23:45:03.157Z,1020.38
2018-02-23T23:47:48.678Z,1020.35
2018-02-23T23:50:33.861Z,1020.33
2018-02-23T23:53:23.698Z,1020.32
2018-02-23T23:56:07.891Z,1020.32
2018-02-23T23:58:54.321Z,1020.34
